createdAt,value
2023-02-04T00:00:20.500Z,100.00
2023-02-04T00:02:47.659Z,100.00
2023-02-04T00:05:17.238Z,100.00
2023-02-04T00:07:44.400Z,100.00
2023-02-04T00:10:11.432Z,100.00
2023-02-04T00:12:38.345Z,100.00
2023-02-04T00:15:06.071Z,100.00
2023-02-04T00:17:33.063Z,100.00
2023-02-04T00:19:59.970Z,100.00
2023-02-04T00:22:28.872Z,100.00
2023-02-04T00:24:55.804Z,100.00
2023-02-04T00:27:23.017Z,100.00
2023-02-04T00:29:50.101Z,100.00
2023-02-04T00:32:17.264Z,100.00
2023-02-04T00:34:44.393Z,100.00
2023-02-04T00:37:11.338Z,100.00
2023-02-04T00:39:38.230Z,100.00
2023-02-04T00:42:05.818Z,100.00
2023-02-04T00:44:33.032Z,100.00
2023-02-04T00:47:00.141Z,100.00
2023-02-04T00:49:27.040Z,100.00
2023-02-04T00:51:53.986Z,100.00
2023-02-04T00:54:21.078Z,100.00
2023-02-04T00:56:48.196Z,100.00
2023-02-04T00:59:15.105Z,100.00
2023-02-04T01:01:42.106Z,100.00
2023-02-04T01:04:09.144Z,100.00
2023-02-04T01:06:36.061Z,100.00
2023-02-04T01:09:04.277Z,100.00
2023-02-04T01:11:31.607Z,100.00
2023-02-04T01:13:59.021Z,100.00
2023-02-04T01:16:26.417Z,100.00
2023-02-04T01:18:55.838Z,100.00
2023-02-04T01:21:24.444Z,100.00
2023-02-04T01:23:51.683Z,100.00
2023-02-04T01:26:22.437Z,100.00
2023-02-04T01:28:49.610Z,100.00
2023-02-04T01:31:17.209Z,100.00
2023-02-04T01:33:44.252Z,100.00
2023-02-04T01:36:11.272Z,100.00
2023-02-04T01:38:38.189Z,100.00
2023-02-04T01:41:06.020Z,100.00
2023-02-04T01:43:34.367Z,100.00
2023-02-04T01:46:02.681Z,100.00
2023-02-04T01:48:29.981Z,100.00
2023-02-04T01:51:09.577Z,100.00
2023-02-04T01:53:37.444Z,100.00
2023-02-04T01:56:20.737Z,100.00
2023-02-04T01:58:48.139Z,100.00
2023-02-04T02:01:33.544Z,100.00
2023-02-04T02:04:01.417Z,100.00
2023-02-04T02:06:29.285Z,100.00
2023-02-04T02:08:58.314Z,100.00
2023-02-04T02:11:26.848Z,100.00
2023-02-04T02:13:54.164Z,100.00
2023-02-04T02:16:21.543Z,100.00
2023-02-04T02:18:49.020Z,100.00
2023-02-04T02:21:20.102Z,100.00
2023-02-04T02:23:57.865Z,100.00
2023-02-04T02:26:25.170Z,100.00
2023-02-04T02:28:52.880Z,100.00
2023-02-04T02:31:21.999Z,100.00
2023-02-04T02:33:50.017Z,100.00
2023-02-04T02:36:17.297Z,100.00
2023-02-04T02:38:45.394Z,100.00
2023-02-04T02:41:12.396Z,100.00
2023-02-04T02:43:39.967Z,100.00
2023-02-04T02:46:07.316Z,100.00
2023-02-04T02:48:34.396Z,100.00
2023-02-04T02:51:01.420Z,100.00
2023-02-04T02:53:28.480Z,100.00
2023-02-04T02:55:55.544Z,100.00
2023-02-04T02:58:34.790Z,100.00
2023-02-04T03:01:05.516Z,100.00
2023-02-04T03:03:44.952Z,100.00
2023-02-04T03:06:22.700Z,100.00
2023-02-04T03:08:52.705Z,100.00
2023-02-04T03:11:19.692Z,100.00
2023-02-04T03:13:47.037Z,100.00
2023-02-04T03:16:14.269Z,100.00
2023-02-04T03:18:41.304Z,100.00
2023-02-04T03:21:08.633Z,100.00
2023-02-04T03:23:36.617Z,100.00
2023-02-04T03:26:05.239Z,100.00
2023-02-04T03:28:32.338Z,100.00
2023-02-04T03:30:59.923Z,100.00
2023-02-04T03:33:32.158Z,100.00
2023-02-04T03:35:59.320Z,100.00
2023-02-04T03:38:26.975Z,100.00
2023-02-04T03:40:53.921Z,100.00
2023-02-04T03:43:20.777Z,100.00
2023-02-04T03:45:47.739Z,100.00
2023-02-04T03:48:14.635Z,100.00
2023-02-04T03:50:42.096Z,100.00
2023-02-04T03:53:09.749Z,100.00
2023-02-04T03:55:36.803Z,100.00
2023-02-04T03:58:04.405Z,100.00
2023-02-04T04:00:32.616Z,100.00
2023-02-04T04:03:00.121Z,100.00
2023-02-04T04:05:28.566Z,100.00
2023-02-04T04:07:55.874Z,100.00
2023-02-04T04:10:22.799Z,100.00
2023-02-04T04:12:49.690Z,100.00
2023-02-04T04:15:16.778Z,100.00
2023-02-04T04:17:43.716Z,100.00
2023-02-04T04:20:11.413Z,100.00
2023-02-04T04:22:39.000Z,100.00
2023-02-04T04:25:07.098Z,100.00
2023-02-04T04:27:34.048Z,100.00
2023-02-04T04:30:01.258Z,100.00
2023-02-04T04:32:28.458Z,100.00
2023-02-04T04:34:55.344Z,100.00
2023-02-04T04:37:22.205Z,100.00
2023-02-04T04:39:49.169Z,100.00
2023-02-04T04:42:16.257Z,100.00
2023-02-04T04:44:43.187Z,100.00
2023-02-04T04:47:10.148Z,100.00
2023-02-04T04:49:37.043Z,100.00
2023-02-04T04:52:04.141Z,100.00
2023-02-04T04:54:31.057Z,100.00
2023-02-04T04:56:58.014Z,100.00
2023-02-04T04:59:24.900Z,100.00
2023-02-04T05:01:51.802Z,100.00
2023-02-04T05:04:18.710Z,100.00
2023-02-04T05:06:46.031Z,100.00
2023-02-04T05:09:12.967Z,100.00
2023-02-04T05:11:39.823Z,100.00
2023-02-04T05:14:06.733Z,100.00
2023-02-04T05:16:33.630Z,100.00
2023-02-04T05:19:00.581Z,100.00
2023-02-04T05:21:27.516Z,100.00
2023-02-04T05:23:54.515Z,100.00
2023-02-04T05:26:29.753Z,100.00
2023-02-04T05:28:57.393Z,100.00
2023-02-04T05:31:24.416Z,100.00
2023-02-04T05:33:51.318Z,100.00
2023-02-04T05:36:18.451Z,100.00
2023-02-04T05:38:45.374Z,100.00
2023-02-04T05:41:12.850Z,100.00
2023-02-04T05:43:39.930Z,100.00
2023-02-04T05:46:06.951Z,100.00
2023-02-04T05:48:34.084Z,100.00
2023-02-04T05:51:01.078Z,100.00
2023-02-04T05:53:27.980Z,100.00
2023-02-04T05:55:54.885Z,100.00
2023-02-04T05:58:21.911Z,100.00
2023-02-04T06:00:48.802Z,100.00
2023-02-04T06:03:15.937Z,100.00
2023-02-04T06:05:44.187Z,100.00
2023-02-04T06:08:11.217Z,100.00
2023-02-04T06:10:38.122Z,100.00
2023-02-04T06:13:05.125Z,100.00
2023-02-04T06:15:31.985Z,100.00
2023-02-04T06:17:58.974Z,100.00
2023-02-04T06:20:25.960Z,100.00
2023-02-04T06:22:54.398Z,100.00
2023-02-04T06:25:22.086Z,100.00
2023-02-04T06:27:49.706Z,100.00
2023-02-04T06:30:17.984Z,100.00
2023-02-04T06:32:44.965Z,100.00
2023-02-04T06:35:13.210Z,100.00
2023-02-04T06:37:40.135Z,100.00
2023-02-04T06:40:08.902Z,100.00
2023-02-04T06:42:35.914Z,100.00
2023-02-04T06:45:03.281Z,100.00
2023-02-04T06:47:30.584Z,100.00
2023-02-04T06:49:57.498Z,100.00
2023-02-04T06:52:24.399Z,100.00
2023-02-04T06:54:51.255Z,100.00
2023-02-04T06:57:18.213Z,100.00
2023-02-04T06:59:47.013Z,100.00
2023-02-04T07:02:14.255Z,100.00
2023-02-04T07:04:43.752Z,100.00
2023-02-04T07:07:11.619Z,100.00
2023-02-04T07:09:40.537Z,100.00
2023-02-04T07:12:07.724Z,100.00
2023-02-04T07:14:35.113Z,100.00
2023-02-04T07:17:02.194Z,100.00
2023-02-04T07:19:29.167Z,100.00
2023-02-04T07:21:57.145Z,100.00
2023-02-04T07:24:24.423Z,100.00
2023-02-04T07:26:51.710Z,100.00
2023-02-04T07:29:25.616Z,100.00
2023-02-04T07:31:53.819Z,100.00
2023-02-04T07:34:21.546Z,100.00
2023-02-04T07:36:48.547Z,100.00
2023-02-04T07:39:16.295Z,100.00
2023-02-04T07:41:43.349Z,100.00
2023-02-04T07:44:10.230Z,100.00
2023-02-04T07:46:37.178Z,100.00
2023-02-04T07:49:04.098Z,100.00
2023-02-04T07:51:31.163Z,100.00
2023-02-04T07:53:58.108Z,100.00
2023-02-04T07:56:25.013Z,100.00
2023-02-04T07:58:52.133Z,100.00
2023-02-04T08:01:19.163Z,100.00
2023-02-04T08:03:46.246Z,100.00
2023-02-04T08:06:13.220Z,100.00
2023-02-04T08:08:40.358Z,100.00
2023-02-04T08:11:07.325Z,100.00
2023-02-04T08:13:34.228Z,100.00
2023-02-04T08:16:01.165Z,100.00
2023-02-04T08:18:28.101Z,100.00
2023-02-04T08:20:55.093Z,100.00
2023-02-04T08:23:22.915Z,100.00
2023-02-04T08:25:49.796Z,100.00
2023-02-04T08:28:16.878Z,100.00
2023-02-04T08:30:43.878Z,100.00
2023-02-04T08:33:10.762Z,100.00
2023-02-04T08:35:37.694Z,100.00
2023-02-04T08:38:04.641Z,100.00
2023-02-04T08:40:33.278Z,100.00
2023-02-04T08:43:00.333Z,100.00
2023-02-04T08:45:27.654Z,100.00
2023-02-04T08:47:54.570Z,100.00
2023-02-04T08:50:21.482Z,100.00
2023-02-04T08:52:48.369Z,100.00
2023-02-04T08:55:15.887Z,100.00
2023-02-04T08:57:42.829Z,100.00
2023-02-04T09:00:12.496Z,100.00
2023-02-04T09:02:39.375Z,100.00
2023-02-04T09:05:07.006Z,100.00
2023-02-04T09:07:33.914Z,100.00
2023-02-04T09:10:00.788Z,100.00
2023-02-04T09:12:27.721Z,100.00
2023-02-04T09:14:54.667Z,100.00
2023-02-04T09:17:21.665Z,100.00
2023-02-04T09:19:48.551Z,100.00
2023-02-04T09:22:15.632Z,100.00
2023-02-04T09:24:42.548Z,100.00
2023-02-04T09:27:09.497Z,100.00
2023-02-04T09:29:36.436Z,100.00
2023-02-04T09:32:03.488Z,100.00
2023-02-04T09:34:30.498Z,100.00
2023-02-04T09:36:57.365Z,100.00
2023-02-04T09:39:24.325Z,100.00
2023-02-04T09:41:54.182Z,99.64
2023-02-04T09:44:25.169Z,100.00
2023-02-04T09:46:57.216Z,100.00
2023-02-04T09:49:25.022Z,100.00
2023-02-04T09:51:52.888Z,98.99
2023-02-04T09:54:23.073Z,100.00
2023-02-04T09:56:51.669Z,98.88
2023-02-04T09:59:24.177Z,99.48
2023-02-04T10:02:01.448Z,98.13
2023-02-04T10:04:29.301Z,96.88
2023-02-04T10:06:58.932Z,98.44
2023-02-04T10:09:26.207Z,96.31
2023-02-04T10:11:53.317Z,98.58
2023-02-04T10:14:23.108Z,99.34
2023-02-04T10:16:59.295Z,99.46
2023-02-04T10:19:28.842Z,94.79
2023-02-04T10:21:56.449Z,94.09
2023-02-04T10:24:30.481Z,94.66
2023-02-04T10:27:10.409Z,96.03
2023-02-04T10:29:37.850Z,92.28
2023-02-04T10:32:05.115Z,90.87
2023-02-04T10:34:39.925Z,93.63
2023-02-04T10:37:20.718Z,92.93
2023-02-04T10:39:49.697Z,91.41
2023-02-04T10:42:27.725Z,91.50
2023-02-04T10:44:55.276Z,92.73
2023-02-04T10:47:25.563Z,91.01
2023-02-04T10:49:53.609Z,89.98
2023-02-04T10:52:23.239Z,89.81
2023-02-04T10:54:50.352Z,91.29
2023-02-04T10:57:22.154Z,89.29
2023-02-04T10:59:54.028Z,88.41
2023-02-04T11:02:43.443Z,87.63
2023-02-04T11:05:19.053Z,87.28
2023-02-04T11:07:48.048Z,88.00
2023-02-04T11:10:30.484Z,87.12
2023-02-04T11:12:57.537Z,87.41
2023-02-04T11:16:11.699Z,90.27
2023-02-04T11:19:01.502Z,87.56
2023-02-04T11:21:33.407Z,88.38
2023-02-04T11:24:13.727Z,88.59
2023-02-04T11:26:52.498Z,87.72
2023-02-04T11:29:38.356Z,88.97
2023-02-04T11:32:27.623Z,89.83
2023-02-04T11:34:57.291Z,88.61
2023-02-04T11:37:37.390Z,88.38
2023-02-04T11:40:33.271Z,87.33
2023-02-04T11:43:11.661Z,90.20
2023-02-04T11:45:39.511Z,88.91
2023-02-04T11:48:19.109Z,87.63
2023-02-04T11:50:57.398Z,86.94
2023-02-04T11:53:32.122Z,88.05
2023-02-04T11:55:59.611Z,86.63
2023-02-04T11:58:30.935Z,87.58
2023-02-04T12:00:58.194Z,86.53
2023-02-04T12:03:32.140Z,87.56
2023-02-04T12:05:59.777Z,87.68
2023-02-04T12:08:33.539Z,86.68
2023-02-04T12:11:04.716Z,83.42
2023-02-04T12:13:32.229Z,80.63
2023-02-04T12:16:07.693Z,81.35
2023-02-04T12:18:35.593Z,78.76
2023-02-04T12:21:04.396Z,78.27
2023-02-04T12:23:32.828Z,79.85
2023-02-04T12:26:00.273Z,79.66
2023-02-04T12:28:28.909Z,79.25
2023-02-04T12:30:56.542Z,78.57
2023-02-04T12:33:23.644Z,79.74
2023-02-04T12:35:52.810Z,80.00
2023-02-04T12:38:20.742Z,80.11
2023-02-04T12:40:47.900Z,79.97
2023-02-04T12:43:14.914Z,81.04
2023-02-04T12:45:45.712Z,79.41
2023-02-04T12:48:13.965Z,77.40
2023-02-04T12:50:41.379Z,79.34
2023-02-04T12:53:08.914Z,78.37
2023-02-04T12:55:35.895Z,77.50
2023-02-04T12:58:02.906Z,80.35
2023-02-04T13:00:29.882Z,82.10
2023-02-04T13:02:59.073Z,83.01
2023-02-04T13:05:27.588Z,81.07
2023-02-04T13:07:54.878Z,81.47
2023-02-04T13:10:23.916Z,81.51
2023-02-04T13:12:51.648Z,79.92
2023-02-04T13:15:18.964Z,80.94
2023-02-04T13:17:46.080Z,80.60
2023-02-04T13:20:13.208Z,81.74
2023-02-04T13:22:40.294Z,78.83
2023-02-04T13:25:07.429Z,78.68
2023-02-04T13:27:34.437Z,77.72
2023-02-04T13:30:01.339Z,76.12
2023-02-04T13:32:28.242Z,75.32
2023-02-04T13:34:55.155Z,75.90
2023-02-04T13:37:23.145Z,75.42
2023-02-04T13:39:50.031Z,73.38
2023-02-04T13:42:16.988Z,73.25
2023-02-04T13:44:43.904Z,73.04
2023-02-04T13:47:10.961Z,73.18
2023-02-04T13:49:37.960Z,72.17
2023-02-04T13:52:05.133Z,72.05
2023-02-04T13:54:32.116Z,71.82
2023-02-04T13:56:59.040Z,71.15
2023-02-04T13:59:25.964Z,74.72
2023-02-04T14:01:52.948Z,75.84
2023-02-04T14:04:20.079Z,77.39
2023-02-04T14:06:46.932Z,76.86
2023-02-04T14:09:13.874Z,78.03
2023-02-04T14:11:40.948Z,77.83
2023-02-04T14:14:08.430Z,77.75
2023-02-04T14:16:37.765Z,78.31
2023-02-04T14:19:07.232Z,76.96
2023-02-04T14:21:34.104Z,76.22
2023-02-04T14:24:01.681Z,76.36
2023-02-04T14:26:28.755Z,73.90
2023-02-04T14:28:55.660Z,76.22
2023-02-04T14:31:22.663Z,76.20
2023-02-04T14:33:50.456Z,79.27
2023-02-04T14:36:17.563Z,77.27
2023-02-04T14:38:44.465Z,76.66
2023-02-04T14:41:16.175Z,77.15
2023-02-04T14:43:43.279Z,76.01
2023-02-04T14:46:10.295Z,76.29
2023-02-04T14:48:37.221Z,76.09
2023-02-04T14:51:04.728Z,75.96
2023-02-04T14:53:31.698Z,75.86
2023-02-04T14:55:58.616Z,71.55
2023-02-04T14:58:27.813Z,73.38
2023-02-04T15:00:55.593Z,67.80
2023-02-04T15:03:22.973Z,68.00
2023-02-04T15:05:49.958Z,66.77
2023-02-04T15:08:17.081Z,69.84
2023-02-04T15:10:43.964Z,66.71
2023-02-04T15:13:11.433Z,66.97
2023-02-04T15:15:38.376Z,67.14
2023-02-04T15:18:05.451Z,69.18
2023-02-04T15:20:32.630Z,69.09
2023-02-04T15:23:01.032Z,68.74
2023-02-04T15:25:28.217Z,70.28
2023-02-04T15:27:55.272Z,70.06
2023-02-04T15:30:22.453Z,72.72
2023-02-04T15:32:49.478Z,72.06
2023-02-04T15:35:16.458Z,71.65
2023-02-04T15:37:43.357Z,71.36
2023-02-04T15:40:11.700Z,75.64
2023-02-04T15:42:38.814Z,80.85
2023-02-04T15:45:07.037Z,82.77
2023-02-04T15:47:34.012Z,85.62
2023-02-04T15:50:01.015Z,87.64
2023-02-04T15:52:29.388Z,88.79
2023-02-04T15:54:56.646Z,90.40
2023-02-04T15:57:23.672Z,90.48
2023-02-04T15:59:50.792Z,92.44
2023-02-04T16:02:17.820Z,91.75
2023-02-04T16:04:45.389Z,92.39
2023-02-04T16:07:12.812Z,93.08
2023-02-04T16:09:39.898Z,92.41
2023-02-04T16:12:06.913Z,92.27
2023-02-04T16:14:33.868Z,90.41
2023-02-04T16:17:01.757Z,90.17
2023-02-04T16:19:29.508Z,88.99
2023-02-04T16:21:56.471Z,87.94
2023-02-04T16:24:23.528Z,87.57
2023-02-04T16:26:50.404Z,90.36
2023-02-04T16:29:17.391Z,92.51
2023-02-04T16:31:44.367Z,93.01
2023-02-04T16:34:11.406Z,93.25
2023-02-04T16:36:38.346Z,93.57
2023-02-04T16:39:05.493Z,94.17
2023-02-04T16:41:32.462Z,94.00
2023-02-04T16:44:00.207Z,94.34
2023-02-04T16:46:28.711Z,95.74
2023-02-04T16:48:55.675Z,96.55
2023-02-04T16:51:22.620Z,97.08
2023-02-04T16:53:50.411Z,97.12
2023-02-04T16:56:17.520Z,97.97
2023-02-04T16:58:44.828Z,97.26
2023-02-04T17:01:12.121Z,97.15
2023-02-04T17:03:39.809Z,97.22
2023-02-04T17:06:07.258Z,96.99
2023-02-04T17:08:34.551Z,96.89
2023-02-04T17:11:27.291Z,96.60
2023-02-04T17:13:55.541Z,95.99
2023-02-04T17:16:22.619Z,96.33
2023-02-04T17:18:49.537Z,96.78
2023-02-04T17:21:16.675Z,97.34
2023-02-04T17:23:45.063Z,98.99
2023-02-04T17:26:12.098Z,98.27
2023-02-04T17:28:39.060Z,98.27
2023-02-04T17:31:07.385Z,98.57
2023-02-04T17:33:35.076Z,98.61
2023-02-04T17:36:02.964Z,98.98
2023-02-04T17:38:30.381Z,98.99
2023-02-04T17:40:58.152Z,98.88
2023-02-04T17:43:25.913Z,99.49
2023-02-04T17:45:52.938Z,99.80
2023-02-04T17:48:19.839Z,99.67
2023-02-04T17:50:46.803Z,100.00
2023-02-04T17:53:13.777Z,100.00
2023-02-04T17:55:40.724Z,99.55
2023-02-04T17:58:19.911Z,99.24
2023-02-04T18:00:48.819Z,99.51
2023-02-04T18:03:20.607Z,98.52
2023-02-04T18:05:51.405Z,99.21
2023-02-04T18:08:25.416Z,98.70
2023-02-04T18:10:55.272Z,99.54
2023-02-04T18:13:35.139Z,99.36
2023-02-04T18:16:17.217Z,100.00
2023-02-04T18:18:44.170Z,100.00
2023-02-04T18:21:31.332Z,99.52
2023-02-04T18:24:28.933Z,98.12
2023-02-04T18:27:00.296Z,98.01
2023-02-04T18:29:27.105Z,96.67
2023-02-04T18:31:58.615Z,97.40
2023-02-04T18:34:40.364Z,99.69
2023-02-04T18:37:29.486Z,100.00
2023-02-04T18:40:08.820Z,100.00
2023-02-04T18:42:45.457Z,100.00
2023-02-04T18:45:31.905Z,100.00
2023-02-04T18:48:22.894Z,100.00
2023-02-04T18:50:54.076Z,100.00
2023-02-04T18:53:26.526Z,100.00
2023-02-04T18:55:57.939Z,100.00
2023-02-04T18:58:29.169Z,100.00
2023-02-04T19:01:10.169Z,100.00
2023-02-04T19:03:56.049Z,100.00
2023-02-04T19:06:42.650Z,100.00
2023-02-04T19:09:12.571Z,100.00
2023-02-04T19:11:48.517Z,100.00
2023-02-04T19:14:47.881Z,100.00
2023-02-04T19:17:16.852Z,100.00
2023-02-04T19:20:00.655Z,100.00
2023-02-04T19:22:46.606Z,100.00
2023-02-04T19:25:32.274Z,100.00
2023-02-04T19:28:24.441Z,100.00
2023-02-04T19:31:05.514Z,100.00
2023-02-04T19:33:45.335Z,100.00
2023-02-04T19:36:39.463Z,100.00
2023-02-04T19:39:45.042Z,100.00
2023-02-04T19:42:36.656Z,100.00
2023-02-04T19:45:25.605Z,100.00
2023-02-04T19:47:57.105Z,100.00
2023-02-04T19:50:32.149Z,100.00
2023-02-04T19:53:22.629Z,100.00
2023-02-04T19:55:54.087Z,100.00
2023-02-04T19:58:21.042Z,100.00
2023-02-04T20:00:50.654Z,100.00
2023-02-04T20:03:48.614Z,100.00
2023-02-04T20:06:27.546Z,100.00
2023-02-04T20:09:25.699Z,100.00
2023-02-04T20:11:57.240Z,100.00
2023-02-04T20:14:40.153Z,100.00
2023-02-04T20:17:22.172Z,100.00
2023-02-04T20:19:50.181Z,100.00
2023-02-04T20:22:22.041Z,100.00
2023-02-04T20:24:49.974Z,100.00
2023-02-04T20:27:21.299Z,100.00
2023-02-04T20:29:49.859Z,100.00
2023-02-04T20:32:26.486Z,100.00
2023-02-04T20:35:12.577Z,100.00
2023-02-04T20:37:41.809Z,100.00
2023-02-04T20:40:34.061Z,100.00
2023-02-04T20:43:03.667Z,100.00
2023-02-04T20:45:56.668Z,100.00
2023-02-04T20:48:31.865Z,100.00
2023-02-04T20:51:02.854Z,100.00
2023-02-04T20:53:50.886Z,100.00
2023-02-04T20:56:37.371Z,100.00
2023-02-04T20:59:16.096Z,100.00
2023-02-04T21:01:45.991Z,100.00
2023-02-04T21:04:19.375Z,100.00
2023-02-04T21:06:46.816Z,100.00
2023-02-04T21:09:26.976Z,100.00
2023-02-04T21:11:55.975Z,100.00
2023-02-04T21:14:24.197Z,100.00
2023-02-04T21:16:52.630Z,100.00
2023-02-04T21:19:20.980Z,100.00
2023-02-04T21:21:48.333Z,100.00
2023-02-04T21:24:15.924Z,100.00
2023-02-04T21:26:42.803Z,100.00
2023-02-04T21:29:11.355Z,100.00
2023-02-04T21:31:38.906Z,100.00
2023-02-04T21:34:06.839Z,100.00
2023-02-04T21:36:33.847Z,100.00
2023-02-04T21:39:00.705Z,100.00
2023-02-04T21:41:27.629Z,100.00
2023-02-04T21:43:54.595Z,100.00
2023-02-04T21:46:21.647Z,100.00
2023-02-04T21:48:48.685Z,100.00
2023-02-04T21:51:16.175Z,100.00
2023-02-04T21:53:44.252Z,100.00
2023-02-04T21:56:11.370Z,100.00
2023-02-04T21:58:38.821Z,100.00
2023-02-04T22:01:06.199Z,100.00
2023-02-04T22:03:33.217Z,100.00
2023-02-04T22:06:00.576Z,100.00
2023-02-04T22:08:27.603Z,100.00
2023-02-04T22:10:54.525Z,100.00
2023-02-04T22:13:21.461Z,100.00
2023-02-04T22:15:48.522Z,100.00
2023-02-04T22:18:15.740Z,100.00
2023-02-04T22:20:42.740Z,100.00
2023-02-04T22:23:09.700Z,100.00
2023-02-04T22:25:36.590Z,100.00
2023-02-04T22:28:03.528Z,100.00
2023-02-04T22:30:30.573Z,100.00
2023-02-04T22:33:00.015Z,100.00
2023-02-04T22:35:29.670Z,100.00
2023-02-04T22:38:00.054Z,100.00
2023-02-04T22:40:28.661Z,100.00
2023-02-04T22:42:55.536Z,100.00
2023-02-04T22:45:22.421Z,100.00
2023-02-04T22:47:50.408Z,100.00
2023-02-04T22:50:17.376Z,100.00
2023-02-04T22:52:44.305Z,100.00
2023-02-04T22:55:11.343Z,100.00
2023-02-04T22:57:38.237Z,100.00
2023-02-04T23:00:10.391Z,100.00
2023-02-04T23:02:37.286Z,100.00
2023-02-04T23:05:05.009Z,100.00
2023-02-04T23:07:33.066Z,100.00
2023-02-04T23:10:00.102Z,100.00
2023-02-04T23:12:27.029Z,100.00
2023-02-04T23:14:54.024Z,100.00
2023-02-04T23:17:21.064Z,100.00
2023-02-04T23:19:48.255Z,100.00
2023-02-04T23:22:17.125Z,100.00
2023-02-04T23:24:44.538Z,100.00
2023-02-04T23:27:12.190Z,100.00
2023-02-04T23:29:40.038Z,100.00
2023-02-04T23:32:07.456Z,100.00
2023-02-04T23:34:35.099Z,100.00
2023-02-04T23:37:02.267Z,100.00
2023-02-04T23:39:29.632Z,100.00
2023-02-04T23:41:56.703Z,100.00
2023-02-04T23:44:23.766Z,100.00
2023-02-04T23:46:50.950Z,100.00
2023-02-04T23:49:17.867Z,100.00
2023-02-04T23:51:45.335Z,100.00
2023-02-04T23:54:12.306Z,100.00
2023-02-04T23:56:39.269Z,100.00
2023-02-04T23:59:07.910Z,100.00
